sensor_id;sensor_type;location;lat;lon;timestamp;P1;durP1;ratioP1;P2;durP2;ratioP2
6292;SDS011;3179;54.350;10.102;2024-01-15T00:00:59;5.43;;;1.70;;
6292;SDS011;3179;54.350;10.102;2024-01-15T00:03:26;10.93;;;1.83;;
6292;SDS011;3179;54.350;10.102;2024-01-15T00:05:53;5.97;;;1.50;;
6292;SDS011;3179;54.350;10.102;2024-01-15T00:08:20;17.20;;;2.60;;
6292;SDS011;3179;54.350;10.102;2024-01-15T00:10:47;11.73;;;2.63;;
6292;SDS011;3179;54.350;10.102;2024-01-15T00:13:14;9.83;;;2.00;;
6292;SDS011;3179;54.350;10.102;2024-01-15T00:15:42;7.07;;;2.00;;
6292;SDS011;3179;54.350;10.102;2024-01-15T00:18:09;4.73;;;1.23;;
6292;SDS011;3179;54.350;10.102;2024-01-15T00:20:36;3.60;;;1.20;;
6292;SDS011;3179;54.350;10.102;2024-01-15T00:23:03;3.67;;;1.00;;
6292;SDS011;3179;54.350;10.102;2024-01-15T00:25:30;2.50;;;0.80;;
6292;SDS011;3179;54.350;10.102;2024-01-15T00:27:57;2.50;;;0.93;;
6292;SDS011;3179;54.350;10.102;2024-01-15T00:30:23;3.10;;;1.10;;
6292;SDS011;3179;54.350;10.102;2024-01-15T00:32:52;8.13;;;1.60;;
6292;SDS011;3179;54.350;10.102;2024-01-15T00:35:18;8.40;;;1.40;;
6292;SDS011;3179;54.350;10.102;2024-01-15T00:37:45;3.00;;;1.47;;
6292;SDS011;3179;54.350;10.102;2024-01-15T00:43:34;7.77;;;1.83;;
6292;SDS011;3179;54.350;10.102;2024-01-15T00:46:01;5.10;;;1.47;;
6292;SDS011;3179;54.350;10.102;2024-01-15T00:48:29;5.80;;;2.20;;
6292;SDS011;3179;54.350;10.102;2024-01-15T00:50:56;4.60;;;1.53;;
6292;SDS011;3179;54.350;10.102;2024-01-15T00:53:23;6.03;;;1.50;;
6292;SDS011;3179;54.350;10.102;2024-01-15T00:55:51;12.17;;;1.83;;
6292;SDS011;3179;54.350;10.102;2024-01-15T00:58:18;8.53;;;2.00;;
6292;SDS011;3179;54.350;10.102;2024-01-15T01:00:45;7.70;;;2.17;;
6292;SDS011;3179;54.350;10.102;2024-01-15T01:03:12;14.37;;;2.40;;
6292;SDS011;3179;54.350;10.102;2024-01-15T01:05:40;14.43;;;2.20;;
6292;SDS011;3179;54.350;10.102;2024-01-15T01:08:08;13.27;;;2.70;;
6292;SDS011;3179;54.350;10.102;2024-01-15T01:10:35;9.17;;;2.30;;
6292;SDS011;3179;54.350;10.102;2024-01-15T01:13:03;14.50;;;2.30;;
6292;SDS011;3179;54.350;10.102;2024-01-15T01:15:30;8.13;;;3.03;;
6292;SDS011;3179;54.350;10.102;2024-01-15T01:17:57;22.90;;;2.87;;
6292;SDS011;3179;54.350;10.102;2024-01-15T01:20:24;16.33;;;3.13;;
6292;SDS011;3179;54.350;10.102;2024-01-15T01:22:52;25.07;;;3.53;;
6292;SDS011;3179;54.350;10.102;2024-01-15T01:25:19;8.87;;;3.20;;
6292;SDS011;3179;54.350;10.102;2024-01-15T01:27:46;11.43;;;2.90;;
6292;SDS011;3179;54.350;10.102;2024-01-15T01:30:13;10.33;;;3.00;;
6292;SDS011;3179;54.350;10.102;2024-01-15T01:32:40;13.47;;;2.90;;
6292;SDS011;3179;54.350;10.102;2024-01-15T01:35:06;15.33;;;2.47;;
6292;SDS011;3179;54.350;10.102;2024-01-15T01:37:33;10.40;;;2.37;;
6292;SDS011;3179;54.350;10.102;2024-01-15T01:40:02;10.43;;;3.30;;
6292;SDS011;3179;54.350;10.102;2024-01-15T01:42:29;17.23;;;3.10;;
6292;SDS011;3179;54.350;10.102;2024-01-15T01:44:56;17.03;;;3.40;;
6292;SDS011;3179;54.350;10.102;2024-01-15T01:47:23;10.80;;;2.37;;
6292;SDS011;3179;54.350;10.102;2024-01-15T01:49:51;14.13;;;2.73;;
6292;SDS011;3179;54.350;10.102;2024-01-15T01:52:18;9.50;;;2.60;;
6292;SDS011;3179;54.350;10.102;2024-01-15T01:54:45;17.20;;;3.10;;
6292;SDS011;3179;54.350;10.102;2024-01-15T01:57:13;12.80;;;3.20;;
6292;SDS011;3179;54.350;10.102;2024-01-15T01:59:42;12.80;;;2.53;;
6292;SDS011;3179;54.350;10.102;2024-01-15T02:02:08;13.37;;;3.13;;
6292;SDS011;3179;54.350;10.102;2024-01-15T02:04:36;15.20;;;3.80;;
6292;SDS011;3179;54.350;10.102;2024-01-15T02:07:03;15.10;;;3.00;;
6292;SDS011;3179;54.350;10.102;2024-01-15T02:09:30;10.30;;;2.77;;
6292;SDS011;3179;54.350;10.102;2024-01-15T02:11:58;9.13;;;2.27;;
6292;SDS011;3179;54.350;10.102;2024-01-15T02:14:32;12.43;;;3.00;;
6292;SDS011;3179;54.350;10.102;2024-01-15T02:16:59;13.33;;;2.70;;
6292;SDS011;3179;54.350;10.102;2024-01-15T02:19:26;14.50;;;2.47;;
6292;SDS011;3179;54.350;10.102;2024-01-15T02:21:53;11.90;;;2.30;;
6292;SDS011;3179;54.350;10.102;2024-01-15T02:24:22;11.00;;;2.40;;
6292;SDS011;3179;54.350;10.102;2024-01-15T02:26:49;8.00;;;2.70;;
6292;SDS011;3179;54.350;10.102;2024-01-15T02:29:16;9.87;;;3.10;;
6292;SDS011;3179;54.350;10.102;2024-01-15T02:31:43;10.40;;;2.10;;
6292;SDS011;3179;54.350;10.102;2024-01-15T02:34:10;7.10;;;2.30;;
6292;SDS011;3179;54.350;10.102;2024-01-15T02:36:37;7.13;;;2.40;;
6292;SDS011;3179;54.350;10.102;2024-01-15T02:39:04;14.00;;;2.60;;
6292;SDS011;3179;54.350;10.102;2024-01-15T02:41:32;17.73;;;2.63;;
6292;SDS011;3179;54.350;10.102;2024-01-15T02:43:59;13.70;;;2.80;;
6292;SDS011;3179;54.350;10.102;2024-01-15T02:46:26;12.60;;;2.40;;
6292;SDS011;3179;54.350;10.102;2024-01-15T02:48:52;13.20;;;2.30;;
6292;SDS011;3179;54.350;10.102;2024-01-15T02:51:19;9.23;;;2.10;;
6292;SDS011;3179;54.350;10.102;2024-01-15T02:53:48;8.03;;;2.00;;
6292;SDS011;3179;54.350;10.102;2024-01-15T02:56:15;8.20;;;2.00;;
6292;SDS011;3179;54.350;10.102;2024-01-15T02:58:43;5.63;;;2.07;;
6292;SDS011;3179;54.350;10.102;2024-01-15T03:01:10;7.17;;;2.30;;
6292;SDS011;3179;54.350;10.102;2024-01-15T03:03:37;9.30;;;2.23;;
6292;SDS011;3179;54.350;10.102;2024-01-15T03:06:05;7.83;;;2.17;;
6292;SDS011;3179;54.350;10.102;2024-01-15T03:08:32;8.30;;;2.20;;
6292;SDS011;3179;54.350;10.102;2024-01-15T03:11:00;9.73;;;3.03;;
6292;SDS011;3179;54.350;10.102;2024-01-15T03:13:27;9.90;;;2.37;;
6292;SDS011;3179;54.350;10.102;2024-01-15T03:15:55;10.47;;;2.30;;
6292;SDS011;3179;54.350;10.102;2024-01-15T03:18:22;6.90;;;2.17;;
6292;SDS011;3179;54.350;10.102;2024-01-15T03:20:49;11.00;;;2.97;;
6292;SDS011;3179;54.350;10.102;2024-01-15T03:23:16;12.33;;;2.50;;
6292;SDS011;3179;54.350;10.102;2024-01-15T03:25:43;13.40;;;2.70;;
6292;SDS011;3179;54.350;10.102;2024-01-15T03:28:10;13.10;;;2.73;;
6292;SDS011;3179;54.350;10.102;2024-01-15T03:30:37;5.40;;;1.87;;
6292;SDS011;3179;54.350;10.102;2024-01-15T03:33:05;10.47;;;2.83;;
6292;SDS011;3179;54.350;10.102;2024-01-15T03:35:32;12.00;;;2.97;;
6292;SDS011;3179;54.350;10.102;2024-01-15T03:37:59;8.90;;;1.50;;
6292;SDS011;3179;54.350;10.102;2024-01-15T03:40:26;16.87;;;3.00;;
6292;SDS011;3179;54.350;10.102;2024-01-15T03:42:53;10.47;;;2.67;;
6292;SDS011;3179;54.350;10.102;2024-01-15T03:45:20;6.00;;;1.63;;
6292;SDS011;3179;54.350;10.102;2024-01-15T03:47:47;8.50;;;2.03;;
6292;SDS011;3179;54.350;10.102;2024-01-15T03:50:15;5.83;;;2.07;;
6292;SDS011;3179;54.350;10.102;2024-01-15T03:52:42;8.33;;;2.10;;
6292;SDS011;3179;54.350;10.102;2024-01-15T03:55:09;11.43;;;1.90;;
6292;SDS011;3179;54.350;10.102;2024-01-15T03:57:35;4.43;;;1.47;;
6292;SDS011;3179;54.350;10.102;2024-01-15T04:00:02;7.67;;;1.80;;
6292;SDS011;3179;54.350;10.102;2024-01-15T04:02:30;9.70;;;2.10;;
6292;SDS011;3179;54.350;10.102;2024-01-15T04:04:57;11.30;;;2.80;;
6292;SDS011;3179;54.350;10.102;2024-01-15T04:07:25;7.23;;;2.60;;
6292;SDS011;3179;54.350;10.102;2024-01-15T04:09:52;19.67;;;2.40;;
6292;SDS011;3179;54.350;10.102;2024-01-15T04:12:19;7.33;;;1.70;;
6292;SDS011;3179;54.350;10.102;2024-01-15T04:14:45;4.20;;;1.23;;
6292;SDS011;3179;54.350;10.102;2024-01-15T04:17:12;7.63;;;1.63;;
6292;SDS011;3179;54.350;10.102;2024-01-15T04:19:39;9.90;;;2.47;;
6292;SDS011;3179;54.350;10.102;2024-01-15T04:22:09;5.77;;;1.70;;
6292;SDS011;3179;54.350;10.102;2024-01-15T04:24:37;12.03;;;1.90;;
6292;SDS011;3179;54.350;10.102;2024-01-15T04:27:04;6.97;;;1.73;;
6292;SDS011;3179;54.350;10.102;2024-01-15T04:29:31;9.23;;;2.20;;
6292;SDS011;3179;54.350;10.102;2024-01-15T04:31:58;8.17;;;2.03;;
6292;SDS011;3179;54.350;10.102;2024-01-15T04:34:25;9.67;;;1.90;;
6292;SDS011;3179;54.350;10.102;2024-01-15T04:36:52;5.37;;;1.70;;
6292;SDS011;3179;54.350;10.102;2024-01-15T04:39:18;6.97;;;1.60;;
6292;SDS011;3179;54.350;10.102;2024-01-15T04:41:47;10.67;;;1.67;;
6292;SDS011;3179;54.350;10.102;2024-01-15T04:44:14;9.03;;;1.80;;
6292;SDS011;3179;54.350;10.102;2024-01-15T04:46:41;11.03;;;2.17;;
6292;SDS011;3179;54.350;10.102;2024-01-15T04:49:08;5.90;;;1.80;;
6292;SDS011;3179;54.350;10.102;2024-01-15T04:51:35;15.90;;;2.00;;
6292;SDS011;3179;54.350;10.102;2024-01-15T04:54:02;11.87;;;2.00;;
6292;SDS011;3179;54.350;10.102;2024-01-15T04:56:30;8.33;;;1.50;;
6292;SDS011;3179;54.350;10.102;2024-01-15T04:58:58;9.00;;;2.07;;
6292;SDS011;3179;54.350;10.102;2024-01-15T05:01:25;7.37;;;1.70;;
6292;SDS011;3179;54.350;10.102;2024-01-15T05:03:51;9.87;;;2.07;;
6292;SDS011;3179;54.350;10.102;2024-01-15T05:06:18;5.60;;;1.90;;
6292;SDS011;3179;54.350;10.102;2024-01-15T05:08:45;7.80;;;2.37;;
6292;SDS011;3179;54.350;10.102;2024-01-15T05:11:12;9.43;;;1.90;;
6292;SDS011;3179;54.350;10.102;2024-01-15T05:13:39;7.33;;;1.80;;
6292;SDS011;3179;54.350;10.102;2024-01-15T05:16:07;5.10;;;1.77;;
6292;SDS011;3179;54.350;10.102;2024-01-15T05:18:34;7.43;;;1.43;;
6292;SDS011;3179;54.350;10.102;2024-01-15T05:21:02;6.47;;;1.60;;
6292;SDS011;3179;54.350;10.102;2024-01-15T05:23:30;8.03;;;2.30;;
6292;SDS011;3179;54.350;10.102;2024-01-15T05:25:58;10.10;;;1.63;;
6292;SDS011;3179;54.350;10.102;2024-01-15T05:28:24;5.67;;;1.73;;
6292;SDS011;3179;54.350;10.102;2024-01-15T05:30:51;1.73;;;0.97;;
6292;SDS011;3179;54.350;10.102;2024-01-15T05:33:21;4.23;;;1.17;;
6292;SDS011;3179;54.350;10.102;2024-01-15T05:35:48;7.10;;;2.33;;
6292;SDS011;3179;54.350;10.102;2024-01-15T05:38:16;8.87;;;1.73;;
6292;SDS011;3179;54.350;10.102;2024-01-15T05:40:43;4.23;;;1.50;;
6292;SDS011;3179;54.350;10.102;2024-01-15T05:43:10;10.73;;;2.07;;
6292;SDS011;3179;54.350;10.102;2024-01-15T05:45:37;5.80;;;1.40;;
6292;SDS011;3179;54.350;10.102;2024-01-15T05:48:04;3.60;;;1.13;;
6292;SDS011;3179;54.350;10.102;2024-01-15T05:50:33;4.00;;;1.47;;
6292;SDS011;3179;54.350;10.102;2024-01-15T05:53:00;3.47;;;1.20;;
6292;SDS011;3179;54.350;10.102;2024-01-15T05:55:27;3.90;;;1.07;;
6292;SDS011;3179;54.350;10.102;2024-01-15T05:57:54;5.17;;;1.33;;
6292;SDS011;3179;54.350;10.102;2024-01-15T06:00:21;5.53;;;1.67;;
6292;SDS011;3179;54.350;10.102;2024-01-15T06:02:48;4.87;;;1.40;;
6292;SDS011;3179;54.350;10.102;2024-01-15T06:05:15;4.47;;;1.20;;
6292;SDS011;3179;54.350;10.102;2024-01-15T06:07:43;3.60;;;1.20;;
6292;SDS011;3179;54.350;10.102;2024-01-15T06:10:10;1.33;;;0.70;;
6292;SDS011;3179;54.350;10.102;2024-01-15T06:12:37;6.53;;;1.33;;
6292;SDS011;3179;54.350;10.102;2024-01-15T06:15:04;4.00;;;0.83;;
6292;SDS011;3179;54.350;10.102;2024-01-15T06:17:31;3.13;;;0.80;;
6292;SDS011;3179;54.350;10.102;2024-01-15T06:19:58;2.50;;;1.27;;
6292;SDS011;3179;54.350;10.102;2024-01-15T06:22:25;4.13;;;1.10;;
6292;SDS011;3179;54.350;10.102;2024-01-15T06:24:53;3.13;;;1.00;;
6292;SDS011;3179;54.350;10.102;2024-01-15T06:27:20;2.20;;;0.80;;
6292;SDS011;3179;54.350;10.102;2024-01-15T06:29:47;6.40;;;1.10;;
6292;SDS011;3179;54.350;10.102;2024-01-15T06:32:14;6.13;;;1.40;;
6292;SDS011;3179;54.350;10.102;2024-01-15T06:34:41;1.90;;;1.07;;
6292;SDS011;3179;54.350;10.102;2024-01-15T06:37:07;3.70;;;1.03;;
6292;SDS011;3179;54.350;10.102;2024-01-15T06:39:34;2.30;;;0.80;;
6292;SDS011;3179;54.350;10.102;2024-01-15T06:42:03;1.57;;;1.20;;
6292;SDS011;3179;54.350;10.102;2024-01-15T06:44:30;2.17;;;0.90;;
6292;SDS011;3179;54.350;10.102;2024-01-15T06:46:57;3.57;;;1.03;;
6292;SDS011;3179;54.350;10.102;2024-01-15T06:49:27;3.37;;;0.90;;
6292;SDS011;3179;54.350;10.102;2024-01-15T06:51:54;4.97;;;0.90;;
6292;SDS011;3179;54.350;10.102;2024-01-15T06:54:21;1.40;;;0.90;;
6292;SDS011;3179;54.350;10.102;2024-01-15T06:56:48;2.37;;;1.07;;
6292;SDS011;3179;54.350;10.102;2024-01-15T06:59:16;3.90;;;1.20;;
6292;SDS011;3179;54.350;10.102;2024-01-15T07:01:43;4.40;;;1.40;;
6292;SDS011;3179;54.350;10.102;2024-01-15T07:04:10;2.40;;;0.93;;
6292;SDS011;3179;54.350;10.102;2024-01-15T07:06:37;6.30;;;1.27;;
6292;SDS011;3179;54.350;10.102;2024-01-15T07:09:04;2.40;;;0.90;;
6292;SDS011;3179;54.350;10.102;2024-01-15T07:11:31;3.07;;;1.43;;
6292;SDS011;3179;54.350;10.102;2024-01-15T07:13:58;1.90;;;0.80;;
6292;SDS011;3179;54.350;10.102;2024-01-15T07:16:26;4.10;;;0.83;;
6292;SDS011;3179;54.350;10.102;2024-01-15T07:18:53;4.67;;;0.90;;
6292;SDS011;3179;54.350;10.102;2024-01-15T07:21:20;4.23;;;1.10;;
6292;SDS011;3179;54.350;10.102;2024-01-15T07:23:48;1.77;;;0.87;;
6292;SDS011;3179;54.350;10.102;2024-01-15T07:26:15;3.13;;;1.00;;
6292;SDS011;3179;54.350;10.102;2024-01-15T07:28:42;1.03;;;0.80;;
6292;SDS011;3179;54.350;10.102;2024-01-15T07:31:09;2.80;;;1.00;;
6292;SDS011;3179;54.350;10.102;2024-01-15T07:33:37;2.43;;;0.90;;
6292;SDS011;3179;54.350;10.102;2024-01-15T07:36:04;2.17;;;0.97;;
6292;SDS011;3179;54.350;10.102;2024-01-15T07:38:31;1.70;;;1.07;;
6292;SDS011;3179;54.350;10.102;2024-01-15T07:40:58;2.50;;;0.90;;
6292;SDS011;3179;54.350;10.102;2024-01-15T07:43:25;5.03;;;1.00;;
6292;SDS011;3179;54.350;10.102;2024-01-15T07:45:53;7.80;;;1.00;;
6292;SDS011;3179;54.350;10.102;2024-01-15T07:48:19;2.73;;;0.87;;
6292;SDS011;3179;54.350;10.102;2024-01-15T07:50:48;4.73;;;1.13;;
6292;SDS011;3179;54.350;10.102;2024-01-15T07:53:15;5.47;;;0.83;;
6292;SDS011;3179;54.350;10.102;2024-01-15T07:55:41;7.87;;;1.30;;
6292;SDS011;3179;54.350;10.102;2024-01-15T07:58:10;4.20;;;1.10;;
6292;SDS011;3179;54.350;10.102;2024-01-15T08:00:37;2.30;;;0.83;;
6292;SDS011;3179;54.350;10.102;2024-01-15T08:03:04;3.57;;;0.97;;
6292;SDS011;3179;54.350;10.102;2024-01-15T08:05:31;6.43;;;1.93;;
6292;SDS011;3179;54.350;10.102;2024-01-15T08:07:59;5.70;;;1.07;;
6292;SDS011;3179;54.350;10.102;2024-01-15T08:10:26;12.30;;;1.50;;
6292;SDS011;3179;54.350;10.102;2024-01-15T08:12:54;7.07;;;1.50;;
6292;SDS011;3179;54.350;10.102;2024-01-15T08:15:21;8.17;;;1.30;;
6292;SDS011;3179;54.350;10.102;2024-01-15T08:17:47;1.63;;;0.90;;
6292;SDS011;3179;54.350;10.102;2024-01-15T08:20:15;1.90;;;1.00;;
6292;SDS011;3179;54.350;10.102;2024-01-15T08:22:42;3.90;;;1.23;;
6292;SDS011;3179;54.350;10.102;2024-01-15T08:25:10;2.00;;;0.90;;
6292;SDS011;3179;54.350;10.102;2024-01-15T08:27:38;2.33;;;0.73;;
6292;SDS011;3179;54.350;10.102;2024-01-15T08:30:05;5.03;;;1.53;;
6292;SDS011;3179;54.350;10.102;2024-01-15T08:32:33;1.53;;;0.80;;
6292;SDS011;3179;54.350;10.102;2024-01-15T08:35:02;2.20;;;0.87;;
6292;SDS011;3179;54.350;10.102;2024-01-15T08:37:29;3.30;;;1.10;;
6292;SDS011;3179;54.350;10.102;2024-01-15T08:39:56;3.23;;;0.83;;
6292;SDS011;3179;54.350;10.102;2024-01-15T08:42:25;5.53;;;1.10;;
6292;SDS011;3179;54.350;10.102;2024-01-15T08:44:52;3.27;;;1.10;;
6292;SDS011;3179;54.350;10.102;2024-01-15T08:47:21;3.53;;;1.47;;
6292;SDS011;3179;54.350;10.102;2024-01-15T08:49:48;1.47;;;1.07;;
6292;SDS011;3179;54.350;10.102;2024-01-15T08:52:15;0.70;;;0.70;;
6292;SDS011;3179;54.350;10.102;2024-01-15T08:54:42;0.70;;;0.60;;
6292;SDS011;3179;54.350;10.102;2024-01-15T08:57:08;2.73;;;0.90;;
6292;SDS011;3179;54.350;10.102;2024-01-15T08:59:38;3.80;;;1.13;;
6292;SDS011;3179;54.350;10.102;2024-01-15T09:02:06;6.97;;;0.90;;
6292;SDS011;3179;54.350;10.102;2024-01-15T09:04:33;4.00;;;1.20;;
6292;SDS011;3179;54.350;10.102;2024-01-15T09:07:00;2.00;;;0.90;;
6292;SDS011;3179;54.350;10.102;2024-01-15T09:09:27;2.00;;;1.00;;
6292;SDS011;3179;54.350;10.102;2024-01-15T09:11:54;3.73;;;0.83;;
6292;SDS011;3179;54.350;10.102;2024-01-15T09:14:21;1.67;;;0.90;;
6292;SDS011;3179;54.350;10.102;2024-01-15T09:16:50;2.20;;;0.83;;
6292;SDS011;3179;54.350;10.102;2024-01-15T09:19:17;1.63;;;0.70;;
6292;SDS011;3179;54.350;10.102;2024-01-15T09:21:44;6.50;;;1.10;;
6292;SDS011;3179;54.350;10.102;2024-01-15T09:24:11;1.37;;;0.80;;
6292;SDS011;3179;54.350;10.102;2024-01-15T09:26:38;3.93;;;1.20;;
6292;SDS011;3179;54.350;10.102;2024-01-15T09:29:05;2.47;;;0.80;;
6292;SDS011;3179;54.350;10.102;2024-01-15T09:31:32;2.90;;;0.87;;
6292;SDS011;3179;54.350;10.102;2024-01-15T09:34:01;8.17;;;1.17;;
6292;SDS011;3179;54.350;10.102;2024-01-15T09:36:27;1.63;;;0.90;;
6292;SDS011;3179;54.350;10.102;2024-01-15T09:38:54;1.00;;;0.70;;
6292;SDS011;3179;54.350;10.102;2024-01-15T09:41:21;1.10;;;1.00;;
6292;SDS011;3179;54.350;10.102;2024-01-15T09:43:48;3.70;;;0.90;;
6292;SDS011;3179;54.350;10.102;2024-01-15T09:46:15;2.07;;;0.70;;
6292;SDS011;3179;54.350;10.102;2024-01-15T09:48:43;2.67;;;0.90;;
6292;SDS011;3179;54.350;10.102;2024-01-15T09:51:11;2.13;;;0.90;;
6292;SDS011;3179;54.350;10.102;2024-01-15T09:53:38;3.57;;;1.13;;
6292;SDS011;3179;54.350;10.102;2024-01-15T09:56:07;0.90;;;0.80;;
6292;SDS011;3179;54.350;10.102;2024-01-15T09:58:34;3.53;;;1.27;;
6292;SDS011;3179;54.350;10.102;2024-01-15T10:01:02;4.37;;;1.63;;
6292;SDS011;3179;54.350;10.102;2024-01-15T10:03:29;2.70;;;1.30;;
6292;SDS011;3179;54.350;10.102;2024-01-15T10:05:57;1.73;;;0.90;;
6292;SDS011;3179;54.350;10.102;2024-01-15T10:08:28;5.03;;;1.30;;
6292;SDS011;3179;54.350;10.102;2024-01-15T10:10:54;5.80;;;0.80;;
6292;SDS011;3179;54.350;10.102;2024-01-15T10:13:21;2.00;;;0.90;;
6292;SDS011;3179;54.350;10.102;2024-01-15T10:15:49;1.23;;;0.70;;
6292;SDS011;3179;54.350;10.102;2024-01-15T10:18:16;2.00;;;0.80;;
6292;SDS011;3179;54.350;10.102;2024-01-15T10:20:43;0.80;;;0.80;;
6292;SDS011;3179;54.350;10.102;2024-01-15T10:23:10;2.30;;;0.77;;
6292;SDS011;3179;54.350;10.102;2024-01-15T10:25:39;2.80;;;1.27;;
6292;SDS011;3179;54.350;10.102;2024-01-15T10:28:08;6.90;;;0.90;;
6292;SDS011;3179;54.350;10.102;2024-01-15T10:30:35;1.33;;;0.50;;
6292;SDS011;3179;54.350;10.102;2024-01-15T10:33:02;3.10;;;0.80;;
6292;SDS011;3179;54.350;10.102;2024-01-15T10:35:30;2.03;;;1.10;;
6292;SDS011;3179;54.350;10.102;2024-01-15T10:37:58;2.03;;;0.70;;
6292;SDS011;3179;54.350;10.102;2024-01-15T10:40:25;0.90;;;0.70;;
6292;SDS011;3179;54.350;10.102;2024-01-15T10:42:53;5.40;;;1.57;;
6292;SDS011;3179;54.350;10.102;2024-01-15T10:45:20;1.07;;;0.77;;
6292;SDS011;3179;54.350;10.102;2024-01-15T10:47:48;2.03;;;0.80;;
6292;SDS011;3179;54.350;10.102;2024-01-15T10:50:15;1.47;;;0.90;;
6292;SDS011;3179;54.350;10.102;2024-01-15T10:52:42;0.90;;;0.50;;
6292;SDS011;3179;54.350;10.102;2024-01-15T10:55:09;0.83;;;0.80;;
6292;SDS011;3179;54.350;10.102;2024-01-15T10:57:37;1.93;;;0.87;;
6292;SDS011;3179;54.350;10.102;2024-01-15T11:00:06;2.60;;;0.80;;
6292;SDS011;3179;54.350;10.102;2024-01-15T11:02:39;0.90;;;0.60;;
6292;SDS011;3179;54.350;10.102;2024-01-15T11:05:07;1.77;;;0.77;;
6292;SDS011;3179;54.350;10.102;2024-01-15T11:07:34;2.63;;;1.00;;
6292;SDS011;3179;54.350;10.102;2024-01-15T11:10:02;2.90;;;1.43;;
6292;SDS011;3179;54.350;10.102;2024-01-15T11:12:30;1.90;;;0.80;;
6292;SDS011;3179;54.350;10.102;2024-01-15T11:15:01;2.23;;;0.80;;
6292;SDS011;3179;54.350;10.102;2024-01-15T11:17:34;0.80;;;0.60;;
6292;SDS011;3179;54.350;10.102;2024-01-15T11:20:24;0.73;;;0.60;;
6292;SDS011;3179;54.350;10.102;2024-01-15T11:22:53;2.40;;;0.70;;
6292;SDS011;3179;54.350;10.102;2024-01-15T11:25:22;2.73;;;1.00;;
6292;SDS011;3179;54.350;10.102;2024-01-15T11:27:50;5.33;;;0.70;;
6292;SDS011;3179;54.350;10.102;2024-01-15T11:30:24;1.20;;;0.60;;
6292;SDS011;3179;54.350;10.102;2024-01-15T11:32:53;1.90;;;0.97;;
6292;SDS011;3179;54.350;10.102;2024-01-15T11:35:20;3.90;;;0.90;;
6292;SDS011;3179;54.350;10.102;2024-01-15T11:37:57;1.57;;;0.57;;
6292;SDS011;3179;54.350;10.102;2024-01-15T11:40:35;3.50;;;1.30;;
6292;SDS011;3179;54.350;10.102;2024-01-15T11:43:04;3.03;;;0.80;;
6292;SDS011;3179;54.350;10.102;2024-01-15T11:45:31;1.73;;;0.57;;
6292;SDS011;3179;54.350;10.102;2024-01-15T11:48:11;3.13;;;0.90;;
6292;SDS011;3179;54.350;10.102;2024-01-15T11:50:41;1.80;;;0.70;;
6292;SDS011;3179;54.350;10.102;2024-01-15T11:53:13;1.10;;;0.60;;
6292;SDS011;3179;54.350;10.102;2024-01-15T11:55:47;1.43;;;0.50;;
6292;SDS011;3179;54.350;10.102;2024-01-15T11:58:17;2.63;;;1.00;;
6292;SDS011;3179;54.350;10.102;2024-01-15T12:00:44;0.70;;;0.50;;
6292;SDS011;3179;54.350;10.102;2024-01-15T12:03:15;3.00;;;0.70;;
6292;SDS011;3179;54.350;10.102;2024-01-15T12:05:42;1.90;;;0.53;;
6292;SDS011;3179;54.350;10.102;2024-01-15T12:08:09;1.43;;;0.70;;
6292;SDS011;3179;54.350;10.102;2024-01-15T12:10:36;2.90;;;1.00;;
6292;SDS011;3179;54.350;10.102;2024-01-15T12:13:06;2.50;;;0.80;;
6292;SDS011;3179;54.350;10.102;2024-01-15T12:15:36;2.67;;;0.90;;
6292;SDS011;3179;54.350;10.102;2024-01-15T12:18:06;0.80;;;0.70;;
6292;SDS011;3179;54.350;10.102;2024-01-15T12:20:36;2.37;;;0.90;;
6292;SDS011;3179;54.350;10.102;2024-01-15T12:23:03;1.00;;;0.80;;
6292;SDS011;3179;54.350;10.102;2024-01-15T12:25:31;1.80;;;1.00;;
6292;SDS011;3179;54.350;10.102;2024-01-15T12:27:58;2.00;;;1.07;;
6292;SDS011;3179;54.350;10.102;2024-01-15T12:30:26;0.67;;;0.67;;
6292;SDS011;3179;54.350;10.102;2024-01-15T12:32:53;3.33;;;0.90;;
6292;SDS011;3179;54.350;10.102;2024-01-15T12:35:20;1.20;;;0.70;;
6292;SDS011;3179;54.350;10.102;2024-01-15T12:37:49;0.90;;;0.50;;
6292;SDS011;3179;54.350;10.102;2024-01-15T12:40:18;1.67;;;0.83;;
6292;SDS011;3179;54.350;10.102;2024-01-15T12:42:45;1.47;;;0.53;;
6292;SDS011;3179;54.350;10.102;2024-01-15T12:45:12;2.10;;;0.80;;
6292;SDS011;3179;54.350;10.102;2024-01-15T12:47:40;1.90;;;0.80;;
6292;SDS011;3179;54.350;10.102;2024-01-15T12:50:08;2.10;;;0.70;;
6292;SDS011;3179;54.350;10.102;2024-01-15T12:52:36;3.87;;;0.80;;
6292;SDS011;3179;54.350;10.102;2024-01-15T12:55:05;1.00;;;0.80;;
6292;SDS011;3179;54.350;10.102;2024-01-15T12:57:34;1.30;;;0.90;;
6292;SDS011;3179;54.350;10.102;2024-01-15T13:00:01;0.97;;;0.87;;
6292;SDS011;3179;54.350;10.102;2024-01-15T13:02:31;3.10;;;0.80;;
6292;SDS011;3179;54.350;10.102;2024-01-15T13:04:58;1.40;;;0.73;;
6292;SDS011;3179;54.350;10.102;2024-01-15T13:07:25;1.90;;;0.90;;
6292;SDS011;3179;54.350;10.102;2024-01-15T13:09:52;3.30;;;1.07;;
6292;SDS011;3179;54.350;10.102;2024-01-15T13:12:20;2.50;;;1.00;;
6292;SDS011;3179;54.350;10.102;2024-01-15T13:14:47;1.40;;;0.70;;
6292;SDS011;3179;54.350;10.102;2024-01-15T13:17:14;5.60;;;0.93;;
6292;SDS011;3179;54.350;10.102;2024-01-15T13:19:41;1.63;;;1.07;;
6292;SDS011;3179;54.350;10.102;2024-01-15T13:22:08;5.00;;;0.97;;
6292;SDS011;3179;54.350;10.102;2024-01-15T13:24:38;1.33;;;1.10;;
6292;SDS011;3179;54.350;10.102;2024-01-15T13:27:05;2.70;;;0.70;;
6292;SDS011;3179;54.350;10.102;2024-01-15T13:29:34;1.70;;;0.90;;
6292;SDS011;3179;54.350;10.102;2024-01-15T13:32:01;2.70;;;0.83;;
6292;SDS011;3179;54.350;10.102;2024-01-15T13:34:28;1.03;;;0.93;;
6292;SDS011;3179;54.350;10.102;2024-01-15T13:36:55;5.07;;;1.00;;
6292;SDS011;3179;54.350;10.102;2024-01-15T13:39:22;1.30;;;1.03;;
6292;SDS011;3179;54.350;10.102;2024-01-15T13:41:49;1.77;;;1.30;;
6292;SDS011;3179;54.350;10.102;2024-01-15T13:44:16;2.03;;;0.90;;
6292;SDS011;3179;54.350;10.102;2024-01-15T13:46:44;3.43;;;1.00;;
6292;SDS011;3179;54.350;10.102;2024-01-15T13:49:11;1.83;;;0.90;;
6292;SDS011;3179;54.350;10.102;2024-01-15T13:51:39;1.63;;;1.20;;
6292;SDS011;3179;54.350;10.102;2024-01-15T13:54:05;2.23;;;0.90;;
6292;SDS011;3179;54.350;10.102;2024-01-15T13:56:32;2.23;;;1.00;;
6292;SDS011;3179;54.350;10.102;2024-01-15T13:59:00;1.13;;;1.03;;
6292;SDS011;3179;54.350;10.102;2024-01-15T14:01:29;3.43;;;0.80;;
6292;SDS011;3179;54.350;10.102;2024-01-15T14:03:57;2.27;;;1.10;;
6292;SDS011;3179;54.350;10.102;2024-01-15T14:06:24;2.13;;;0.70;;
6292;SDS011;3179;54.350;10.102;2024-01-15T14:08:51;0.80;;;0.60;;
6292;SDS011;3179;54.350;10.102;2024-01-15T14:11:18;2.53;;;0.90;;
6292;SDS011;3179;54.350;10.102;2024-01-15T14:13:45;2.10;;;0.80;;
6292;SDS011;3179;54.350;10.102;2024-01-15T14:16:12;1.43;;;0.77;;
6292;SDS011;3179;54.350;10.102;2024-01-15T14:18:39;1.40;;;0.80;;
6292;SDS011;3179;54.350;10.102;2024-01-15T14:21:08;2.53;;;0.93;;
6292;SDS011;3179;54.350;10.102;2024-01-15T14:23:35;1.47;;;1.10;;
6292;SDS011;3179;54.350;10.102;2024-01-15T14:26:02;2.30;;;1.27;;
6292;SDS011;3179;54.350;10.102;2024-01-15T14:28:29;3.70;;;0.80;;
6292;SDS011;3179;54.350;10.102;2024-01-15T14:30:56;4.67;;;1.30;;
6292;SDS011;3179;54.350;10.102;2024-01-15T14:33:25;0.80;;;0.80;;
6292;SDS011;3179;54.350;10.102;2024-01-15T14:35:52;2.40;;;0.90;;
6292;SDS011;3179;54.350;10.102;2024-01-15T14:38:20;4.83;;;1.20;;
6292;SDS011;3179;54.350;10.102;2024-01-15T14:40:47;2.50;;;0.80;;
6292;SDS011;3179;54.350;10.102;2024-01-15T14:43:14;2.60;;;0.90;;
6292;SDS011;3179;54.350;10.102;2024-01-15T14:45:42;4.00;;;0.87;;
6292;SDS011;3179;54.350;10.102;2024-01-15T14:48:09;1.67;;;0.93;;
6292;SDS011;3179;54.350;10.102;2024-01-15T14:50:38;2.70;;;1.20;;
6292;SDS011;3179;54.350;10.102;2024-01-15T14:53:05;4.53;;;1.00;;
6292;SDS011;3179;54.350;10.102;2024-01-15T14:55:33;6.20;;;1.20;;
6292;SDS011;3179;54.350;10.102;2024-01-15T14:58:00;2.03;;;0.90;;
6292;SDS011;3179;54.350;10.102;2024-01-15T15:00:27;2.10;;;1.00;;
6292;SDS011;3179;54.350;10.102;2024-01-15T15:02:54;3.00;;;1.20;;
6292;SDS011;3179;54.350;10.102;2024-01-15T15:05:21;4.47;;;1.00;;